< < Back
Terminal Aerodrome Forecast


Current Version              Previous Versions:   1  2  3  4  5  6  7  8  9  

Terminal Aerodrome Forecast

236
FTUS42 KFFC 282338
TAFCSG
TAF
KCSG 282338Z 2900/2924 08007KT P6SM SCT070
     FM290300 09003KT P6SM FEW060 SCT250
     FM291400 31005KT P6SM FEW040 SCT120
     FM291800 33007KT P6SM SCT060 BKN120
     FM292300 35006KT P6SM SCT250=

Latest METAR

932
SAUS70 KWBC 290400
MTRCSG
METAR KCSG 290351Z AUTO 08004KT 10SM CLR 23/16 A3009 RMK AO2 SLP183
T02330161


USA.gov is the U.S. government's official web portal to all federal, state and local government web resources and services.